sensor_id;sensor_type;location;lat;lon;timestamp;pressure;altitude;pressure_sealevel;temperature;humidity
41312;BME280;27061;41.648;24.568;2023-06-04T00:00:32;85985.88;;;13.16;76.45
41312;BME280;27061;41.648;24.568;2023-06-04T00:02:59;85886.50;;;12.45;75.50
41312;BME280;27061;41.648;24.568;2023-06-04T00:05:28;85981.75;;;13.13;75.32
41312;BME280;27061;41.648;24.568;2023-06-04T00:07:57;86144.06;;;14.05;75.80
41312;BME280;27061;41.648;24.568;2023-06-04T00:10:26;85907.66;;;12.28;76.59
41312;BME280;27061;41.648;24.568;2023-06-04T00:12:57;85823.50;;;11.59;76.77
41312;BME280;27061;41.648;24.568;2023-06-04T00:15:26;85924.81;;;12.38;76.12
41312;BME280;27061;41.648;24.568;2023-06-04T00:17:56;85790.69;;;11.33;76.21
41312;BME280;27061;41.648;24.568;2023-06-04T00:20:24;85803.84;;;11.32;75.97
41312;BME280;27061;41.648;24.568;2023-06-04T00:22:52;85838.38;;;11.40;77.14
41312;BME280;27061;41.648;24.568;2023-06-04T00:25:19;85851.63;;;11.78;77.39
41312;BME280;27061;41.648;24.568;2023-06-04T00:27:46;86046.19;;;13.24;77.08
41312;BME280;27061;41.648;24.568;2023-06-04T00:30:14;85816.56;;;11.58;76.44
41312;BME280;27061;41.648;24.568;2023-06-04T00:32:42;85853.72;;;11.78;76.43
41312;BME280;27061;41.648;24.568;2023-06-04T00:35:09;86108.72;;;13.62;76.66
41312;BME280;27061;41.648;24.568;2023-06-04T00:37:38;86114.09;;;13.72;77.13
41312;BME280;27061;41.648;24.568;2023-06-04T00:40:08;85986.63;;;12.74;76.65
41312;BME280;27061;41.648;24.568;2023-06-04T00:42:37;86128.34;;;13.89;76.37
41312;BME280;27061;41.648;24.568;2023-06-04T00:45:10;85967.19;;;12.74;76.07
41312;BME280;27061;41.648;24.568;2023-06-04T00:47:38;85836.44;;;11.75;76.12
41312;BME280;27061;41.648;24.568;2023-06-04T00:50:06;85968.81;;;12.61;76.77
41312;BME280;27061;41.648;24.568;2023-06-04T00:52:34;85980.25;;;12.42;77.31
41312;BME280;27061;41.648;24.568;2023-06-04T00:55:02;85859.88;;;11.39;77.64
41312;BME280;27061;41.648;24.568;2023-06-04T00:57:29;85896.50;;;11.89;77.76
41312;BME280;27061;41.648;24.568;2023-06-04T00:59:59;86036.34;;;12.92;77.26
41312;BME280;27061;41.648;24.568;2023-06-04T01:02:29;85865.56;;;11.72;77.22
41312;BME280;27061;41.648;24.568;2023-06-04T01:05:10;85868.25;;;11.78;77.58
41312;BME280;27061;41.648;24.568;2023-06-04T01:07:41;86117.16;;;13.56;77.96
41312;BME280;27061;41.648;24.568;2023-06-04T01:10:13;86107.06;;;13.40;77.91
41312;BME280;27061;41.648;24.568;2023-06-04T01:12:42;85968.72;;;12.28;77.90
41312;BME280;27061;41.648;24.568;2023-06-04T01:15:10;85908.75;;;12.04;76.77
41312;BME280;27061;41.648;24.568;2023-06-04T01:17:44;85970.50;;;12.45;76.53
41312;BME280;27061;41.648;24.568;2023-06-04T01:20:38;86007.47;;;12.75;77.30
41312;BME280;27061;41.648;24.568;2023-06-04T01:23:28;86106.34;;;13.42;78.07
41312;BME280;27061;41.648;24.568;2023-06-04T01:26:02;86052.44;;;12.83;78.75
41312;BME280;27061;41.648;24.568;2023-06-04T01:28:32;86130.00;;;13.39;79.40
41312;BME280;27061;41.648;24.568;2023-06-04T01:30:59;86091.69;;;13.04;79.23
41312;BME280;27061;41.648;24.568;2023-06-04T01:33:28;86059.69;;;13.05;77.83
41312;BME280;27061;41.648;24.568;2023-06-04T01:35:57;86049.59;;;12.88;78.04
41312;BME280;27061;41.648;24.568;2023-06-04T01:38:25;86076.25;;;13.13;78.54
41312;BME280;27061;41.648;24.568;2023-06-04T01:40:53;86025.56;;;12.72;78.74
41312;BME280;27061;41.648;24.568;2023-06-04T01:43:28;86082.44;;;13.18;77.84
41312;BME280;27061;41.648;24.568;2023-06-04T01:45:55;86100.34;;;13.27;77.42
41312;BME280;27061;41.648;24.568;2023-06-04T01:48:23;85998.28;;;12.43;78.69
41312;BME280;27061;41.648;24.568;2023-06-04T01:50:51;86070.97;;;12.97;78.72
41312;BME280;27061;41.648;24.568;2023-06-04T01:53:19;86119.69;;;13.33;79.26
41312;BME280;27061;41.648;24.568;2023-06-04T01:55:50;86131.28;;;13.46;78.89
41312;BME280;27061;41.648;24.568;2023-06-04T01:58:19;86036.81;;;12.64;78.28
41312;BME280;27061;41.648;24.568;2023-06-04T02:00:58;86086.22;;;13.00;78.32
41312;BME280;27061;41.648;24.568;2023-06-04T02:03:27;86003.97;;;12.35;78.51
41312;BME280;27061;41.648;24.568;2023-06-04T02:05:54;86093.81;;;13.02;78.47
41312;BME280;27061;41.648;24.568;2023-06-04T02:08:22;85993.03;;;12.25;78.24
41312;BME280;27061;41.648;24.568;2023-06-04T02:10:52;85972.47;;;12.10;78.64
41312;BME280;27061;41.648;24.568;2023-06-04T02:13:19;86068.47;;;12.81;78.27
41312;BME280;27061;41.648;24.568;2023-06-04T02:15:47;86136.94;;;13.40;78.54
41312;BME280;27061;41.648;24.568;2023-06-04T02:18:19;86113.09;;;13.12;78.96
41312;BME280;27061;41.648;24.568;2023-06-04T02:20:49;86117.38;;;13.05;79.50
41312;BME280;27061;41.648;24.568;2023-06-04T02:23:18;86099.75;;;12.79;79.54
41312;BME280;27061;41.648;24.568;2023-06-04T02:25:46;86112.84;;;12.85;79.66
41312;BME280;27061;41.648;24.568;2023-06-04T02:28:15;85992.75;;;11.98;79.50
41312;BME280;27061;41.648;24.568;2023-06-04T02:30:44;85992.22;;;11.90;79.79
41312;BME280;27061;41.648;24.568;2023-06-04T02:33:14;86074.97;;;12.67;78.83
41312;BME280;27061;41.648;24.568;2023-06-04T02:35:42;86037.81;;;12.46;77.66
41312;BME280;27061;41.648;24.568;2023-06-04T02:38:09;86124.47;;;12.98;78.25
41312;BME280;27061;41.648;24.568;2023-06-04T02:40:38;86086.81;;;12.64;78.61
41312;BME280;27061;41.648;24.568;2023-06-04T02:43:05;86072.41;;;12.53;79.17
41312;BME280;27061;41.648;24.568;2023-06-04T02:45:33;86055.38;;;12.32;78.80
41312;BME280;27061;41.648;24.568;2023-06-04T02:48:00;86066.19;;;12.51;78.23
41312;BME280;27061;41.648;24.568;2023-06-04T02:50:27;86116.22;;;12.92;78.27
41312;BME280;27061;41.648;24.568;2023-06-04T02:52:54;86158.50;;;12.98;78.62
41312;BME280;27061;41.648;24.568;2023-06-04T02:55:22;85997.69;;;11.94;78.52
41312;BME280;27061;41.648;24.568;2023-06-04T02:57:49;86159.03;;;13.07;78.35
41312;BME280;27061;41.648;24.568;2023-06-04T03:00:18;86176.25;;;13.17;78.75
41312;BME280;27061;41.648;24.568;2023-06-04T03:02:46;86176.50;;;13.01;79.20
41312;BME280;27061;41.648;24.568;2023-06-04T03:05:16;86009.06;;;11.76;78.89
41312;BME280;27061;41.648;24.568;2023-06-04T03:07:46;86186.19;;;13.04;79.30
41312;BME280;27061;41.648;24.568;2023-06-04T03:10:15;86189.97;;;12.82;79.99
41312;BME280;27061;41.648;24.568;2023-06-04T03:12:43;86185.22;;;12.77;80.26
41312;BME280;27061;41.648;24.568;2023-06-04T03:15:11;86071.66;;;12.12;79.27
41312;BME280;27061;41.648;24.568;2023-06-04T03:17:38;86189.06;;;12.98;79.07
41312;BME280;27061;41.648;24.568;2023-06-04T03:20:06;86121.97;;;12.36;79.44
41312;BME280;27061;41.648;24.568;2023-06-04T03:22:34;86172.63;;;12.82;79.53
41312;BME280;27061;41.648;24.568;2023-06-04T03:25:03;86133.44;;;12.57;79.63
41312;BME280;27061;41.648;24.568;2023-06-04T03:27:32;86171.97;;;12.81;79.94
41312;BME280;27061;41.648;24.568;2023-06-04T03:30:00;86162.97;;;12.79;80.34
41312;BME280;27061;41.648;24.568;2023-06-04T03:32:35;86163.28;;;12.59;80.89
41312;BME280;27061;41.648;24.568;2023-06-04T03:35:04;86143.91;;;12.53;81.58
41312;BME280;27061;41.648;24.568;2023-06-04T03:37:32;86041.88;;;11.57;83.31
41312;BME280;27061;41.648;24.568;2023-06-04T03:40:00;86190.81;;;12.73;82.95
41312;BME280;27061;41.648;24.568;2023-06-04T03:42:28;86148.22;;;12.43;82.63
41312;BME280;27061;41.648;24.568;2023-06-04T03:45:00;85995.69;;;11.37;82.77
41312;BME280;27061;41.648;24.568;2023-06-04T03:47:28;86034.38;;;11.47;83.38
41312;BME280;27061;41.648;24.568;2023-06-04T03:49:55;86138.63;;;12.36;83.64
41312;BME280;27061;41.648;24.568;2023-06-04T03:52:23;86002.53;;;11.44;83.84
41312;BME280;27061;41.648;24.568;2023-06-04T03:54:51;86043.72;;;11.77;83.80
41312;BME280;27061;41.648;24.568;2023-06-04T03:57:18;86204.34;;;12.97;84.00
41312;BME280;27061;41.648;24.568;2023-06-04T03:59:46;86117.13;;;12.33;83.40
41312;BME280;27061;41.648;24.568;2023-06-04T04:02:17;86129.63;;;12.34;85.08
41312;BME280;27061;41.648;24.568;2023-06-04T04:04:47;86205.72;;;12.98;85.39
41312;BME280;27061;41.648;24.568;2023-06-04T04:07:15;86075.97;;;12.00;85.44
41312;BME280;27061;41.648;24.568;2023-06-04T04:09:44;86047.16;;;11.77;85.17
41312;BME280;27061;41.648;24.568;2023-06-04T04:12:11;86080.84;;;12.00;85.30
41312;BME280;27061;41.648;24.568;2023-06-04T04:14:39;86091.75;;;12.14;84.81
41312;BME280;27061;41.648;24.568;2023-06-04T04:17:06;86220.78;;;13.13;85.37
41312;BME280;27061;41.648;24.568;2023-06-04T04:19:33;86187.94;;;12.81;86.35
41312;BME280;27061;41.648;24.568;2023-06-04T04:22:00;86189.19;;;12.90;85.98
41312;BME280;27061;41.648;24.568;2023-06-04T04:24:28;86224.94;;;13.14;86.06
41312;BME280;27061;41.648;24.568;2023-06-04T04:27:01;86091.09;;;12.09;86.80
41312;BME280;27061;41.648;24.568;2023-06-04T04:29:32;86236.72;;;13.17;87.88
41312;BME280;27061;41.648;24.568;2023-06-04T04:32:03;86183.72;;;12.84;88.50
41312;BME280;27061;41.648;24.568;2023-06-04T04:34:52;86234.59;;;13.22;88.62
41312;BME280;27061;41.648;24.568;2023-06-04T04:37:26;86127.41;;;12.42;87.49
41312;BME280;27061;41.648;24.568;2023-06-04T04:39:56;86139.56;;;12.66;87.21
41312;BME280;27061;41.648;24.568;2023-06-04T04:42:25;86216.50;;;13.23;87.18
41312;BME280;27061;41.648;24.568;2023-06-04T04:44:52;86190.31;;;13.07;86.89
41312;BME280;27061;41.648;24.568;2023-06-04T04:47:23;86068.97;;;12.05;87.28
41312;BME280;27061;41.648;24.568;2023-06-04T04:49:51;86028.34;;;11.86;88.56
41312;BME280;27061;41.648;24.568;2023-06-04T04:52:19;86239.88;;;13.38;89.04
41312;BME280;27061;41.648;24.568;2023-06-04T04:54:46;86186.84;;;13.05;89.38
41312;BME280;27061;41.648;24.568;2023-06-04T04:57:14;86051.69;;;12.01;89.73
41312;BME280;27061;41.648;24.568;2023-06-04T04:59:45;86238.38;;;13.45;89.33
41312;BME280;27061;41.648;24.568;2023-06-04T05:02:13;86095.47;;;12.43;88.12
41312;BME280;27061;41.648;24.568;2023-06-04T05:04:40;86157.28;;;12.87;87.97
41312;BME280;27061;41.648;24.568;2023-06-04T05:07:09;86243.09;;;13.54;88.38
41312;BME280;27061;41.648;24.568;2023-06-04T05:09:40;86255.44;;;13.64;88.85
41312;BME280;27061;41.648;24.568;2023-06-04T05:12:08;86192.19;;;13.21;89.30
41312;BME280;27061;41.648;24.568;2023-06-04T05:14:37;86212.78;;;13.36;89.80
41312;BME280;27061;41.648;24.568;2023-06-04T05:17:06;86144.59;;;12.98;89.98
41312;BME280;27061;41.648;24.568;2023-06-04T05:19:34;86205.09;;;13.39;90.22
41312;BME280;27061;41.648;24.568;2023-06-04T05:22:06;86049.81;;;12.32;89.85
41312;BME280;27061;41.648;24.568;2023-06-04T05:24:37;86177.38;;;13.35;89.15
41312;BME280;27061;41.648;24.568;2023-06-04T05:27:05;86106.69;;;12.80;88.47
41312;BME280;27061;41.648;24.568;2023-06-04T05:29:33;86116.84;;;12.96;88.33
41312;BME280;27061;41.648;24.568;2023-06-04T05:32:01;86204.69;;;13.63;88.77
41312;BME280;27061;41.648;24.568;2023-06-04T05:34:33;86213.44;;;13.78;90.93
41312;BME280;27061;41.648;24.568;2023-06-04T05:37:04;86258.84;;;14.07;93.18
41312;BME280;27061;41.648;24.568;2023-06-04T05:39:38;86258.69;;;14.15;93.91
41312;BME280;27061;41.648;24.568;2023-06-04T05:42:11;86216.84;;;13.82;93.98
41312;BME280;27061;41.648;24.568;2023-06-04T05:44:38;86183.78;;;13.66;94.59
41312;BME280;27061;41.648;24.568;2023-06-04T05:47:07;86208.44;;;13.86;95.26
41312;BME280;27061;41.648;24.568;2023-06-04T05:49:35;86220.69;;;14.00;95.97
41312;BME280;27061;41.648;24.568;2023-06-04T05:52:03;86164.53;;;13.52;95.52
41312;BME280;27061;41.648;24.568;2023-06-04T05:54:31;86250.06;;;14.29;95.53
41312;BME280;27061;41.648;24.568;2023-06-04T05:57:00;86309.31;;;14.63;96.08
41312;BME280;27061;41.648;24.568;2023-06-04T05:59:27;86115.97;;;13.47;95.07
41312;BME280;27061;41.648;24.568;2023-06-04T06:01:58;86219.03;;;14.15;94.29
41312;BME280;27061;41.648;24.568;2023-06-04T06:04:26;86074.13;;;13.16;91.49
41312;BME280;27061;41.648;24.568;2023-06-04T06:06:53;86123.13;;;13.36;87.56
41312;BME280;27061;41.648;24.568;2023-06-04T06:09:22;86106.28;;;13.44;87.25
41312;BME280;27061;41.648;24.568;2023-06-04T06:11:49;86237.41;;;14.37;87.68
41312;BME280;27061;41.648;24.568;2023-06-04T06:14:18;86253.19;;;14.50;87.58
41312;BME280;27061;41.648;24.568;2023-06-04T06:16:45;86125.28;;;13.68;87.47
41312;BME280;27061;41.648;24.568;2023-06-04T06:19:14;86302.88;;;15.06;87.92
41312;BME280;27061;41.648;24.568;2023-06-04T06:21:41;86087.03;;;13.34;88.40
41312;BME280;27061;41.648;24.568;2023-06-04T06:24:10;86132.00;;;13.81;88.89
41312;BME280;27061;41.648;24.568;2023-06-04T06:26:37;86305.28;;;15.24;87.63
41312;BME280;27061;41.648;24.568;2023-06-04T06:29:07;86310.03;;;15.29;87.76
41312;BME280;27061;41.648;24.568;2023-06-04T06:31:35;86091.22;;;13.68;85.23
41312;BME280;27061;41.648;24.568;2023-06-04T06:34:03;86068.69;;;13.47;81.94
41312;BME280;27061;41.648;24.568;2023-06-04T06:36:31;86047.41;;;13.33;80.99
41312;BME280;27061;41.648;24.568;2023-06-04T06:39:00;86193.44;;;14.41;81.49
41312;BME280;27061;41.648;24.568;2023-06-04T06:41:27;86226.84;;;14.76;84.30
41312;BME280;27061;41.648;24.568;2023-06-04T06:43:54;86149.22;;;14.25;85.96
41312;BME280;27061;41.648;24.568;2023-06-04T06:46:21;86315.22;;;15.48;88.18
41312;BME280;27061;41.648;24.568;2023-06-04T06:48:50;86183.38;;;14.56;89.60
41312;BME280;27061;41.648;24.568;2023-06-04T06:51:17;86220.47;;;14.82;89.76
41312;BME280;27061;41.648;24.568;2023-06-04T06:53:44;86266.88;;;15.26;89.50
41312;BME280;27061;41.648;24.568;2023-06-04T06:56:14;86135.13;;;14.33;90.29
41312;BME280;27061;41.648;24.568;2023-06-04T06:58:42;86303.81;;;15.60;90.59
41312;BME280;27061;41.648;24.568;2023-06-04T07:01:09;86296.06;;;15.62;89.06
41312;BME280;27061;41.648;24.568;2023-06-04T07:03:37;86148.63;;;14.53;88.87
41312;BME280;27061;41.648;24.568;2023-06-04T07:06:08;86215.13;;;15.02;87.94
41312;BME280;27061;41.648;24.568;2023-06-04T07:08:35;86249.44;;;15.26;87.61
41312;BME280;27061;41.648;24.568;2023-06-04T07:11:03;86184.09;;;14.88;87.68
41312;BME280;27061;41.648;24.568;2023-06-04T07:13:33;86268.91;;;15.61;87.13
41312;BME280;27061;41.648;24.568;2023-06-04T07:16:08;86223.56;;;15.29;85.60
41312;BME280;27061;41.648;24.568;2023-06-04T07:18:35;86123.50;;;14.55;85.64
41312;BME280;27061;41.648;24.568;2023-06-04T07:21:02;86218.16;;;15.23;86.38
41312;BME280;27061;41.648;24.568;2023-06-04T07:23:30;86194.00;;;15.12;86.05
41312;BME280;27061;41.648;24.568;2023-06-04T07:25:58;86300.97;;;15.91;87.32
41312;BME280;27061;41.648;24.568;2023-06-04T07:28:26;86300.28;;;15.90;89.29
41312;BME280;27061;41.648;24.568;2023-06-04T07:30:53;86246.56;;;15.61;89.90
41312;BME280;27061;41.648;24.568;2023-06-04T07:33:21;86282.06;;;15.93;90.66
41312;BME280;27061;41.648;24.568;2023-06-04T07:35:49;86224.28;;;15.59;91.15
41312;BME280;27061;41.648;24.568;2023-06-04T07:38:16;86328.97;;;16.44;90.24
41312;BME280;27061;41.648;24.568;2023-06-04T07:40:46;86110.28;;;14.85;87.96
41312;BME280;27061;41.648;24.568;2023-06-04T07:43:14;86253.47;;;15.93;82.76
41312;BME280;27061;41.648;24.568;2023-06-04T07:45:43;86337.38;;;16.71;78.30
41312;BME280;27061;41.648;24.568;2023-06-04T07:48:11;86264.72;;;16.18;79.62
41312;BME280;27061;41.648;24.568;2023-06-04T07:50:38;86322.09;;;16.68;81.14
41312;BME280;27061;41.648;24.568;2023-06-04T07:53:08;86179.47;;;15.67;81.29
41312;BME280;27061;41.648;24.568;2023-06-04T07:55:35;86195.56;;;15.91;77.75
41312;BME280;27061;41.648;24.568;2023-06-04T07:58:03;86186.63;;;15.87;78.76
41312;BME280;27061;41.648;24.568;2023-06-04T08:00:34;86272.19;;;16.52;79.32
41312;BME280;27061;41.648;24.568;2023-06-04T08:03:01;86199.09;;;15.90;81.32
41312;BME280;27061;41.648;24.568;2023-06-04T08:05:29;86285.16;;;16.64;83.70
41312;BME280;27061;41.648;24.568;2023-06-04T08:07:57;86208.91;;;16.16;82.45
41312;BME280;27061;41.648;24.568;2023-06-04T08:10:24;86173.34;;;15.87;83.18
41312;BME280;27061;41.648;24.568;2023-06-04T08:12:52;86222.75;;;16.20;82.62
41312;BME280;27061;41.648;24.568;2023-06-04T08:15:21;86321.22;;;17.01;83.18
41312;BME280;27061;41.648;24.568;2023-06-04T08:17:52;86326.47;;;17.13;79.76
41312;BME280;27061;41.648;24.568;2023-06-04T08:20:20;86294.72;;;16.98;79.56
41312;BME280;27061;41.648;24.568;2023-06-04T08:22:51;86360.31;;;17.52;80.26
41312;BME280;27061;41.648;24.568;2023-06-04T08:25:19;86198.78;;;16.29;79.00
41312;BME280;27061;41.648;24.568;2023-06-04T08:27:47;86252.41;;;16.85;75.57
41312;BME280;27061;41.648;24.568;2023-06-04T08:30:14;86272.00;;;17.10;76.71
41312;BME280;27061;41.648;24.568;2023-06-04T08:32:42;86166.78;;;16.24;78.36
41312;BME280;27061;41.648;24.568;2023-06-04T08:35:10;86161.94;;;16.22;75.55
41312;BME280;27061;41.648;24.568;2023-06-04T08:37:40;86257.34;;;16.84;75.42
41312;BME280;27061;41.648;24.568;2023-06-04T08:40:17;86139.00;;;15.93;76.63
41312;BME280;27061;41.648;24.568;2023-06-04T08:42:46;86362.88;;;17.85;74.79
41312;BME280;27061;41.648;24.568;2023-06-04T08:45:19;86364.41;;;17.80;76.84
41312;BME280;27061;41.648;24.568;2023-06-04T08:47:50;86209.41;;;16.74;78.86
41312;BME280;27061;41.648;24.568;2023-06-04T08:50:37;86293.53;;;17.38;78.75
41312;BME280;27061;41.648;24.568;2023-06-04T08:53:30;86293.00;;;17.34;77.65
41312;BME280;27061;41.648;24.568;2023-06-04T08:56:09;86090.16;;;15.67;77.82
41312;BME280;27061;41.648;24.568;2023-06-04T08:59:20;86335.03;;;17.32;77.05
41312;BME280;27061;41.648;24.568;2023-06-04T09:02:45;86196.56;;;16.58;78.04
41312;BME280;27061;41.648;24.568;2023-06-04T09:05:46;86374.69;;;17.88;77.01
41312;BME280;27061;41.648;24.568;2023-06-04T09:09:25;86101.09;;;15.75;75.02
41312;BME280;27061;41.648;24.568;2023-06-04T09:12:21;86142.38;;;16.22;75.99
41312;BME280;27061;41.648;24.568;2023-06-04T09:14:54;86233.31;;;16.94;73.08
41312;BME280;27061;41.648;24.568;2023-06-04T09:17:24;86076.72;;;15.73;74.76
41312;BME280;27061;41.648;24.568;2023-06-04T09:19:53;86307.00;;;17.56;75.37
41312;BME280;27061;41.648;24.568;2023-06-04T09:22:35;86174.44;;;16.75;74.59
41312;BME280;27061;41.648;24.568;2023-06-04T09:25:05;86209.75;;;16.87;74.34
41312;BME280;27061;41.648;24.568;2023-06-04T09:27:39;86354.22;;;18.16;75.22
41312;BME280;27061;41.648;24.568;2023-06-04T09:30:07;86275.09;;;17.47;73.74
41312;BME280;27061;41.648;24.568;2023-06-04T09:32:36;86374.63;;;18.36;74.67
41312;BME280;27061;41.648;24.568;2023-06-04T09:35:15;86118.66;;;16.46;74.20
41312;BME280;27061;41.648;24.568;2023-06-04T09:37:53;86273.53;;;17.52;76.27
41312;BME280;27061;41.648;24.568;2023-06-04T09:40:22;86225.75;;;17.13;77.21
41312;BME280;27061;41.648;24.568;2023-06-04T09:42:50;86258.72;;;17.33;75.55
41312;BME280;27061;41.648;24.568;2023-06-04T09:45:34;86389.31;;;18.36;76.03
41312;BME280;27061;41.648;24.568;2023-06-04T09:48:04;86257.09;;;17.17;74.09
41312;BME280;27061;41.648;24.568;2023-06-04T09:50:35;86219.78;;;17.02;71.21
41312;BME280;27061;41.648;24.568;2023-06-04T09:53:15;86251.56;;;17.38;72.28
41312;BME280;27061;41.648;24.568;2023-06-04T09:55:43;86099.63;;;16.28;71.95
41312;BME280;27061;41.648;24.568;2023-06-04T09:58:11;86174.88;;;16.59;75.77
41312;BME280;27061;41.648;24.568;2023-06-04T10:03:35;86383.53;;;18.42;74.65
41312;BME280;27061;41.648;24.568;2023-06-04T10:06:05;86204.97;;;17.06;75.50
41312;BME280;27061;41.648;24.568;2023-06-04T10:08:33;86246.97;;;17.29;76.41
41312;BME280;27061;41.648;24.568;2023-06-04T10:11:02;86140.59;;;16.60;77.67
41312;BME280;27061;41.648;24.568;2023-06-04T10:13:36;86261.72;;;17.50;74.71
41312;BME280;27061;41.648;24.568;2023-06-04T10:16:07;86146.50;;;16.50;71.33
41312;BME280;27061;41.648;24.568;2023-06-04T10:18:44;86404.72;;;18.60;69.70
41312;BME280;27061;41.648;24.568;2023-06-04T10:21:13;86324.34;;;17.86;69.74
41312;BME280;27061;41.648;24.568;2023-06-04T10:23:44;86375.41;;;18.11;69.62
41312;BME280;27061;41.648;24.568;2023-06-04T10:26:14;86249.84;;;17.27;70.92
41312;BME280;27061;41.648;24.568;2023-06-04T10:28:42;86244.91;;;17.27;69.64
41312;BME280;27061;41.648;24.568;2023-06-04T10:31:10;86355.66;;;17.92;69.72
41312;BME280;27061;41.648;24.568;2023-06-04T10:33:38;86401.00;;;18.22;71.25
41312;BME280;27061;41.648;24.568;2023-06-04T10:36:17;86229.22;;;16.91;72.85
41312;BME280;27061;41.648;24.568;2023-06-04T10:38:50;86412.94;;;18.20;73.72
41312;BME280;27061;41.648;24.568;2023-06-04T10:41:22;86389.59;;;18.05;71.39
41312;BME280;27061;41.648;24.568;2023-06-04T10:43:51;86339.66;;;17.66;71.46
41312;BME280;27061;41.648;24.568;2023-06-04T10:46:20;86410.94;;;18.17;71.65
41312;BME280;27061;41.648;24.568;2023-06-04T10:48:48;86315.28;;;17.61;71.28
41312;BME280;27061;41.648;24.568;2023-06-04T10:51:29;86357.16;;;17.89;71.88
41312;BME280;27061;41.648;24.568;2023-06-04T10:54:00;86342.53;;;17.62;72.49
41312;BME280;27061;41.648;24.568;2023-06-04T10:56:33;86398.56;;;18.10;74.18
41312;BME280;27061;41.648;24.568;2023-06-04T10:59:14;86377.31;;;17.94;75.21
41312;BME280;27061;41.648;24.568;2023-06-04T11:01:42;86205.38;;;16.69;78.09
41312;BME280;27061;41.648;24.568;2023-06-04T11:04:22;86403.97;;;18.16;80.11
41312;BME280;27061;41.648;24.568;2023-06-04T11:07:08;86279.31;;;17.24;81.41
41312;BME280;27061;41.648;24.568;2023-06-04T11:09:37;86389.59;;;18.05;80.98
41312;BME280;27061;41.648;24.568;2023-06-04T11:12:06;86219.41;;;16.67;80.97
41312;BME280;27061;41.648;24.568;2023-06-04T11:14:34;86239.66;;;16.67;80.90
41312;BME280;27061;41.648;24.568;2023-06-04T11:17:12;86271.94;;;17.12;80.89
41312;BME280;27061;41.648;24.568;2023-06-04T11:19:39;86416.06;;;18.10;80.15
41312;BME280;27061;41.648;24.568;2023-06-04T11:22:10;86237.88;;;16.80;79.48
41312;BME280;27061;41.648;24.568;2023-06-04T11:24:39;86386.50;;;17.90;79.80
41312;BME280;27061;41.648;24.568;2023-06-04T11:27:06;86375.22;;;17.70;80.08
41312;BME280;27061;41.648;24.568;2023-06-04T11:29:43;86400.13;;;17.80;78.24
41312;BME280;27061;41.648;24.568;2023-06-04T11:32:23;86315.78;;;17.19;77.80
41312;BME280;27061;41.648;24.568;2023-06-04T11:34:50;86390.25;;;17.83;77.03
41312;BME280;27061;41.648;24.568;2023-06-04T11:37:18;86429.44;;;18.08;76.46
41312;BME280;27061;41.648;24.568;2023-06-04T11:39:45;86384.94;;;17.73;75.79
41312;BME280;27061;41.648;24.568;2023-06-04T11:42:12;86383.97;;;17.82;74.55
41312;BME280;27061;41.648;24.568;2023-06-04T11:44:39;86342.38;;;17.43;74.86
41312;BME280;27061;41.648;24.568;2023-06-04T11:47:12;86409.00;;;17.88;75.01
41312;BME280;27061;41.648;24.568;2023-06-04T11:49:39;86406.75;;;17.93;75.07
41312;BME280;27061;41.648;24.568;2023-06-04T11:52:07;86368.56;;;17.59;75.79
41312;BME280;27061;41.648;24.568;2023-06-04T11:54:34;86330.91;;;17.29;76.38
41312;BME280;27061;41.648;24.568;2023-06-04T11:57:05;86437.16;;;18.07;76.99
41312;BME280;27061;41.648;24.568;2023-06-04T11:59:33;86251.28;;;16.76;76.69
41312;BME280;27061;41.648;24.568;2023-06-04T12:02:02;86311.06;;;17.14;75.96
41312;BME280;27061;41.648;24.568;2023-06-04T12:04:30;86417.31;;;17.90;76.50
41312;BME280;27061;41.648;24.568;2023-06-04T12:07:00;86404.94;;;17.83;77.66
41312;BME280;27061;41.648;24.568;2023-06-04T12:09:30;86424.50;;;17.85;78.11
41312;BME280;27061;41.648;24.568;2023-06-04T12:12:07;86425.72;;;17.90;77.22
41312;BME280;27061;41.648;24.568;2023-06-04T12:14:35;86444.47;;;17.96;76.73
41312;BME280;27061;41.648;24.568;2023-06-04T12:17:06;86411.81;;;17.64;76.17
41312;BME280;27061;41.648;24.568;2023-06-04T12:19:46;86416.63;;;17.67;75.60
41312;BME280;27061;41.648;24.568;2023-06-04T12:22:15;86447.69;;;17.82;75.74
41312;BME280;27061;41.648;24.568;2023-06-04T12:24:53;86475.28;;;17.96;75.80
41312;BME280;27061;41.648;24.568;2023-06-04T12:27:23;86423.38;;;17.49;75.51
41312;BME280;27061;41.648;24.568;2023-06-04T12:30:02;86460.03;;;17.91;75.51
41312;BME280;27061;41.648;24.568;2023-06-04T12:32:34;86349.59;;;16.84;75.55
41312;BME280;27061;41.648;24.568;2023-06-04T12:35:02;86424.69;;;17.52;75.87
41312;BME280;27061;41.648;24.568;2023-06-04T12:37:30;86348.03;;;16.92;76.31
41312;BME280;27061;41.648;24.568;2023-06-04T12:39:57;86386.25;;;17.26;76.21
41312;BME280;27061;41.648;24.568;2023-06-04T12:42:24;86318.56;;;16.70;74.76
41312;BME280;27061;41.648;24.568;2023-06-04T12:44:52;86458.13;;;17.59;73.69
41312;BME280;27061;41.648;24.568;2023-06-04T12:47:19;86411.31;;;17.30;74.44
41312;BME280;27061;41.648;24.568;2023-06-04T12:49:48;86471.19;;;17.68;74.70
41312;BME280;27061;41.648;24.568;2023-06-04T12:52:17;86453.84;;;17.62;74.92
41312;BME280;27061;41.648;24.568;2023-06-04T12:54:44;86459.75;;;17.49;74.65
41312;BME280;27061;41.648;24.568;2023-06-04T12:57:12;86317.06;;;16.46;74.66
41312;BME280;27061;41.648;24.568;2023-06-04T12:59:39;86446.84;;;17.36;74.51
41312;BME280;27061;41.648;24.568;2023-06-04T13:02:06;86432.44;;;17.25;74.61
41312;BME280;27061;41.648;24.568;2023-06-04T13:04:33;86436.44;;;17.32;75.72
41312;BME280;27061;41.648;24.568;2023-06-04T13:07:01;86447.31;;;17.44;76.57
41312;BME280;27061;41.648;24.568;2023-06-04T13:09:30;86324.53;;;16.54;76.52